Time,TemperatureF,DewpointF,PressureIn,WindDirection,WindDirectionDegrees,WindSpeedMPH,WindSpeedGustMPH,Humidity,HourlyPrecipIn,Conditions,Clouds,dailyrainin,SoftwareType,DateUTC
2013-01-04 00:03:00,16.1,5.0,30.53,SE,129,0.0,1.0,62,0.00,,,0.00,weatherlink.com 1.10,2013-01-04 07:03:00,
2013-01-04 00:19:00,14.6,5.0,30.53,SE,129,0.0,0.0,66,0.00,,,0.00,weatherlink.com 1.10,2013-01-04 07:19:00,
2013-01-04 00:34:00,14.1,5.0,30.53,SE,127,0.0,1.0,67,0.00,,,0.00,weatherlink.com 1.10,2013-01-04 07:34:00,
2013-01-04 00:49:00,15.6,5.0,30.53,NNE,27,2.0,3.0,64,0.00,,,0.00,weatherlink.com 1.10,2013-01-04 07:49:00,
2013-01-04 01:04:00,16.3,5.0,30.53,SE,129,3.0,3.0,62,0.00,,,0.00,weatherlink.com 1.10,2013-01-04 08:04:00,
2013-01-04 01:19:00,16.3,5.0,30.53,ESE,122,1.0,5.0,60,0.00,,,0.00,weatherlink.com 1.10,2013-01-04 08:19:00,
2013-01-04 01:34:00,15.9,3.0,30.53,SE,139,2.0,6.0,58,0.00,,,0.00,weatherlink.com 1.10,2013-01-04 08:34:00,
2013-01-04 01:49:00,15.5,2.0,30.53,SE,139,1.0,4.0,56,0.00,,,0.00,weatherlink.com 1.10,2013-01-04 08:49:00,
2013-01-04 02:04:00,16.0,1.0,30.53,SE,143,3.0,6.0,52,0.00,,,0.00,weatherlink.com 1.10,2013-01-04 09:04:00,
2013-01-04 02:19:00,15.5,2.0,30.54,SSE,155,2.0,5.0,55,0.00,,,0.00,weatherlink.com 1.10,2013-01-04 09:19:00,
2013-01-04 02:34:00,14.8,2.0,30.54,SSE,148,1.0,4.0,58,0.00,,,0.00,weatherlink.com 1.10,2013-01-04 09:34:00,
2013-01-04 02:49:00,13.0,3.0,30.54,SE,134,0.0,1.0,63,0.00,,,0.00,weatherlink.com 1.10,2013-01-04 09:49:00,
2013-01-04 03:04:00,12.1,2.0,30.54,ESE,112,0.0,2.0,65,0.00,,,0.00,weatherlink.com 1.10,2013-01-04 10:04:00,
2013-01-04 03:19:00,13.3,2.0,30.54,ENE,78,1.0,5.0,60,0.00,,,0.00,weatherlink.com 1.10,2013-01-04 10:19:00,
2013-01-04 03:34:00,13.9,2.0,30.53,SE,143,2.0,5.0,60,0.00,,,0.00,weatherlink.com 1.10,2013-01-04 10:34:00,
2013-01-04 03:49:00,13.4,2.0,30.53,WNW,302,0.0,5.0,61,0.00,,,0.00,weatherlink.com 1.10,2013-01-04 10:49:00,
2013-01-04 04:04:00,12.7,2.0,30.54,East,89,0.0,4.0,63,0.00,,,0.00,weatherlink.com 1.10,2013-01-04 11:04:00,
2013-01-04 04:19:00,12.2,2.0,30.54,SSW,204,0.0,1.0,63,0.00,,,0.00,weatherlink.com 1.10,2013-01-04 11:19:00,
2013-01-04 04:34:00,12.1,2.0,30.54,ESE,120,1.0,3.0,63,0.00,,,0.00,weatherlink.com 1.10,2013-01-04 11:34:00,
2013-01-04 04:49:00,13.2,1.0,30.53,SE,144,1.0,6.0,58,0.00,,,0.00,weatherlink.com 1.10,2013-01-04 11:49:00,
2013-01-04 05:04:00,12.3,0.0,30.53,East,101,0.0,4.0,58,0.00,,,0.00,weatherlink.com 1.10,2013-01-04 12:04:00,
2013-01-04 05:19:00,10.8,-1.0,30.54,NNE,30,0.0,1.0,60,0.00,,,0.00,weatherlink.com 1.10,2013-01-04 12:19:00,
2013-01-04 05:34:00,10.0,0.0,30.54,SSE,156,0.0,3.0,65,0.00,,,0.00,weatherlink.com 1.10,2013-01-04 12:34:00,
2013-01-04 05:49:00,9.4,1.0,30.54,NE,39,1.0,1.0,69,0.00,,,0.00,weatherlink.com 1.10,2013-01-04 12:49:00,
2013-01-04 06:04:00,9.2,1.0,30.54,ESE,115,0.0,2.0,69,0.00,,,0.00,weatherlink.com 1.10,2013-01-04 13:04:00,
2013-01-04 06:19:00,8.9,0.0,30.55,ENE,73,0.0,1.0,68,0.00,,,0.00,weatherlink.com 1.10,2013-01-04 13:19:00,
2013-01-04 06:35:00,8.1,0.0,30.55,SE,132,0.0,1.0,70,0.00,,,0.00,weatherlink.com 1.10,2013-01-04 13:35:00,
2013-01-04 06:50:00,8.2,0.0,30.55,SSE,148,1.0,3.0,69,0.00,,,0.00,weatherlink.com 1.10,2013-01-04 13:50:00,
2013-01-04 07:05:00,7.7,0.0,30.55,SE,129,0.0,2.0,70,0.00,,,0.00,weatherlink.com 1.10,2013-01-04 14:05:00,
2013-01-04 07:20:00,7.6,0.0,30.56,ESE,115,0.0,2.0,70,0.00,,,0.00,weatherlink.com 1.10,2013-01-04 14:20:00,
2013-01-04 07:35:00,7.0,-1.0,30.56,East,95,0.0,1.0,71,0.00,,,0.00,weatherlink.com 1.10,2013-01-04 14:35:00,
2013-01-04 07:50:00,6.8,-1.0,30.57,NE,56,2.0,2.0,71,0.00,,,0.00,weatherlink.com 1.10,2013-01-04 14:50:00,
2013-01-04 08:05:00,10.5,2.0,30.57,ENE,67,0.0,0.0,69,0.00,,,0.00,weatherlink.com 1.10,2013-01-04 15:05:00,
2013-01-04 08:20:00,13.3,2.0,30.58,SE,135,0.0,3.0,62,0.00,,,0.00,weatherlink.com 1.10,2013-01-04 15:20:00,
2013-01-04 08:35:00,14.9,1.0,30.58,SSE,148,3.0,5.0,55,0.00,,,0.00,weatherlink.com 1.10,2013-01-04 15:35:00,
2013-01-04 08:50:00,15.5,1.0,30.58,ESE,123,2.0,6.0,53,0.00,,,0.00,weatherlink.com 1.10,2013-01-04 15:50:00,
2013-01-04 09:06:00,16.1,1.0,30.59,SSE,156,4.0,6.0,52,0.00,,,0.00,weatherlink.com 1.10,2013-01-04 16:06:00,
2013-01-04 09:20:00,17.1,1.0,30.59,SE,136,3.0,6.0,49,0.00,,,0.00,weatherlink.com 1.10,2013-01-04 16:20:00,
2013-01-04 09:35:00,17.5,1.0,30.59,SSE,156,1.0,8.0,48,0.00,,,0.00,weatherlink.com 1.10,2013-01-04 16:35:00,
2013-01-04 09:51:00,18.4,1.0,30.59,SSE,150,3.0,5.0,47,0.00,,,0.00,weatherlink.com 1.10,2013-01-04 16:51:00,
2013-01-04 10:06:00,19.6,1.0,30.59,SSE,149,3.0,5.0,44,0.00,,,0.00,weatherlink.com 1.10,2013-01-04 17:06:00,
2013-01-04 10:21:00,20.3,2.0,30.59,SE,143,2.0,5.0,44,0.00,,,0.00,weatherlink.com 1.10,2013-01-04 17:21:00,
2013-01-04 10:36:00,21.4,1.0,30.58,SE,132,0.0,5.0,42,0.00,,,0.00,weatherlink.com 1.10,2013-01-04 17:36:00,
2013-01-04 10:51:00,23.4,2.0,30.57,SSE,152,1.0,4.0,39,0.00,,,0.00,weatherlink.com 1.10,2013-01-04 17:51:00,
2013-01-04 11:06:00,24.7,2.0,30.56,SE,145,1.0,4.0,38,0.00,,,0.00,weatherlink.com 1.10,2013-01-04 18:06:00,
2013-01-04 11:21:00,26.0,3.0,30.54,SE,129,1.0,5.0,37,0.00,,,0.00,weatherlink.com 1.10,2013-01-04 18:21:00,
2013-01-04 11:36:00,25.9,3.0,30.53,ESE,114,3.0,5.0,37,0.00,,,0.00,weatherlink.com 1.10,2013-01-04 18:36:00,
2013-01-04 11:51:00,27.3,3.0,30.52,ESE,118,0.0,6.0,36,0.00,,,0.00,weatherlink.com 1.10,2013-01-04 18:51:00,
2013-01-04 12:06:00,29.0,3.0,30.50,ESE,112,2.0,4.0,33,0.00,,,0.00,weatherlink.com 1.10,2013-01-04 19:06:00,
2013-01-04 12:21:00,30.0,4.0,30.50,SE,127,0.0,4.0,33,0.00,,,0.00,weatherlink.com 1.10,2013-01-04 19:21:00,
2013-01-04 12:37:00,31.3,6.0,30.48,East,89,1.0,4.0,34,0.00,,,0.00,weatherlink.com 1.10,2013-01-04 19:37:00,
2013-01-04 12:52:00,31.9,8.0,30.47,SE,138,1.0,5.0,36,0.00,,,0.00,weatherlink.com 1.10,2013-01-04 19:52:00,
2013-01-04 13:07:00,32.3,7.0,30.46,SE,146,0.0,7.0,35,0.00,,,0.00,weatherlink.com 1.10,2013-01-04 20:07:00,
2013-01-04 13:22:00,33.5,7.0,30.44,SE,139,0.0,5.0,33,0.00,,,0.00,weatherlink.com 1.10,2013-01-04 20:22:00,
2013-01-04 13:37:00,34.4,7.0,30.43,SW,227,6.0,6.0,32,0.00,,,0.00,weatherlink.com 1.10,2013-01-04 20:37:00,
2013-01-04 13:52:00,34.8,8.0,30.42,SW,228,3.0,6.0,32,0.00,,,0.00,weatherlink.com 1.10,2013-01-04 20:52:00,
2013-01-04 14:07:00,35.3,7.0,30.41,WNW,297,1.0,4.0,31,0.00,,,0.00,weatherlink.com 1.10,2013-01-04 21:07:00,
2013-01-04 14:22:00,35.6,7.0,30.41,SW,225,4.0,6.0,30,0.00,,,0.00,weatherlink.com 1.10,2013-01-04 21:22:00,
2013-01-04 14:37:00,36.7,6.0,30.41,SSW,207,2.0,7.0,28,0.00,,,0.00,weatherlink.com 1.10,2013-01-04 21:37:00,
2013-01-04 14:52:00,36.4,6.0,30.40,North,9,3.0,9.0,28,0.00,,,0.00,weatherlink.com 1.10,2013-01-04 21:52:00,
2013-01-04 15:08:00,36.2,6.0,30.40,West,259,6.0,9.0,28,0.00,,,0.00,weatherlink.com 1.10,2013-01-04 22:08:00,
2013-01-04 15:23:00,36.2,5.0,30.40,North,356,3.0,7.0,27,0.00,,,0.00,weatherlink.com 1.10,2013-01-04 22:23:00,
2013-01-04 15:38:00,36.4,5.0,30.40,SW,224,5.0,8.0,27,0.00,,,0.00,weatherlink.com 1.10,2013-01-04 22:38:00,
2013-01-04 15:53:00,36.3,5.0,30.40,West,276,8.0,10.0,27,0.00,,,0.00,weatherlink.com 1.10,2013-01-04 22:53:00,
2013-01-04 16:08:00,36.1,5.0,30.40,WSW,257,1.0,5.0,27,0.00,,,0.00,weatherlink.com 1.10,2013-01-04 23:08:00,
2013-01-04 16:23:00,36.5,4.0,30.40,South,190,1.0,5.0,26,0.00,,,0.00,weatherlink.com 1.10,2013-01-04 23:23:00,
2013-01-04 16:38:00,36.2,5.0,30.40,NNE,18,1.0,6.0,27,0.00,,,0.00,weatherlink.com 1.10,2013-01-04 23:38:00,
2013-01-04 16:53:00,35.0,5.0,30.40,NNE,25,1.0,6.0,28,0.00,,,0.00,weatherlink.com 1.10,2013-01-04 23:53:00,
2013-01-04 17:08:00,32.9,4.0,30.40,NW,321,1.0,5.0,29,0.00,,,0.00,weatherlink.com 1.10,2013-01-05 00:08:00,
2013-01-04 17:23:00,31.6,3.0,30.41,North,349,0.0,4.0,30,0.00,,,0.00,weatherlink.com 1.10,2013-01-05 00:23:00,
2013-01-04 17:38:00,30.7,3.0,30.41,NE,44,0.0,4.0,30,0.00,,,0.00,weatherlink.com 1.10,2013-01-05 00:38:00,
2013-01-04 17:53:00,29.8,2.0,30.41,NNE,33,2.0,6.0,31,0.00,,,0.00,weatherlink.com 1.10,2013-01-05 00:53:00,
2013-01-04 18:08:00,29.0,2.0,30.42,NNE,23,1.0,4.0,32,0.00,,,0.00,weatherlink.com 1.10,2013-01-05 01:08:00,
2013-01-04 18:23:00,27.8,2.0,30.43,NE,41,1.0,1.0,33,0.00,,,0.00,weatherlink.com 1.10,2013-01-05 01:23:00,
2013-01-04 18:38:00,27.0,3.0,30.43,ENE,60,1.0,4.0,36,0.00,,,0.00,weatherlink.com 1.10,2013-01-05 01:38:00,
2013-01-04 18:54:00,25.8,4.0,30.44,ENE,74,0.0,1.0,39,0.00,,,0.00,weatherlink.com 1.10,2013-01-05 01:54:00,
2013-01-04 19:09:00,25.0,4.0,30.44,NE,51,0.0,1.0,41,0.00,,,0.00,weatherlink.com 1.10,2013-01-05 02:09:00,
2013-01-04 19:24:00,25.0,5.0,30.45,NE,39,1.0,2.0,42,0.00,,,0.00,weatherlink.com 1.10,2013-01-05 02:24:00,
2013-01-04 19:39:00,25.3,5.0,30.45,NNW,346,1.0,2.0,41,0.00,,,0.00,weatherlink.com 1.10,2013-01-05 02:39:00,
2013-01-04 19:54:00,25.1,4.0,30.46,NE,44,0.0,2.0,41,0.00,,,0.00,weatherlink.com 1.10,2013-01-05 02:54:00,
2013-01-04 20:09:00,25.5,4.0,30.45,NNE,20,2.0,4.0,40,0.00,,,0.00,weatherlink.com 1.10,2013-01-05 03:09:00,
2013-01-04 20:24:00,25.5,4.0,30.45,NNE,29,1.0,4.0,39,0.00,,,0.00,weatherlink.com 1.10,2013-01-05 03:24:00,
2013-01-04 20:39:00,24.3,3.0,30.46,NE,34,0.0,2.0,39,0.00,,,0.00,weatherlink.com 1.10,2013-01-05 03:39:00,
2013-01-04 20:54:00,23.4,2.0,30.46,NE,37,0.0,1.0,40,0.00,,,0.00,weatherlink.com 1.10,2013-01-05 03:54:00,
2013-01-04 21:09:00,22.6,2.0,30.46,NNE,30,0.0,3.0,40,0.00,,,0.00,weatherlink.com 1.10,2013-01-05 04:09:00,
2013-01-04 21:24:00,21.5,1.0,30.46,NE,34,2.0,3.0,41,0.00,,,0.00,weatherlink.com 1.10,2013-01-05 04:24:00,
2013-01-04 21:39:00,20.7,1.0,30.46,NNE,33,2.0,4.0,43,0.00,,,0.00,weatherlink.com 1.10,2013-01-05 04:39:00,
2013-01-04 21:54:00,22.2,3.0,30.47,NNE,18,2.0,5.0,44,0.00,,,0.00,weatherlink.com 1.10,2013-01-05 04:54:00,
2013-01-04 22:10:00,22.5,3.0,30.47,NNE,18,3.0,4.0,43,0.00,,,0.00,weatherlink.com 1.10,2013-01-05 05:10:00,
2013-01-04 22:25:00,22.8,3.0,30.47,NE,43,1.0,5.0,43,0.00,,,0.00,weatherlink.com 1.10,2013-01-05 05:25:00,
2013-01-04 22:40:00,23.0,3.0,30.47,North,5,2.0,8.0,42,0.00,,,0.00,weatherlink.com 1.10,2013-01-05 05:40:00,
2013-01-04 22:55:00,22.7,3.0,30.48,NE,39,1.0,5.0,43,0.00,,,0.00,weatherlink.com 1.10,2013-01-05 05:55:00,
2013-01-04 23:10:00,22.0,3.0,30.47,NE,34,0.0,2.0,44,0.00,,,0.00,weatherlink.com 1.10,2013-01-05 06:10:00,
2013-01-04 23:28:00,21.9,3.0,30.48,NE,39,1.0,4.0,44,0.00,,,0.00,weatherlink.com 1.10,2013-01-05 06:28:00,
2013-01-04 23:40:00,21.3,3.0,30.48,NE,39,0.0,2.0,45,0.00,,,0.00,weatherlink.com 1.10,2013-01-05 06:40:00,
2013-01-04 23:55:00,20.9,3.0,30.48,NE,46,0.0,1.0,45,0.00,,,0.00,weatherlink.com 1.10,2013-01-05 06:55:00,